createdAt,value
2022-09-04T00:01:57.910Z,95.20
2022-09-04T00:05:09.600Z,95.60
2022-09-04T00:08:05.551Z,96.10
2022-09-04T00:11:08.073Z,96.40
2022-09-04T00:13:43.829Z,96.70
2022-09-04T00:16:28.738Z,97.20
2022-09-04T00:19:19.221Z,97.60
2022-09-04T00:22:02.738Z,98.10
2022-09-04T00:24:40.592Z,98.60
2022-09-04T00:27:30.246Z,99.90
2022-09-04T00:30:07.478Z,99.60
2022-09-04T00:33:19.405Z,99.20
2022-09-04T00:36:02.706Z,99.30
2022-09-04T00:38:58.788Z,99.20
2022-09-04T00:41:38.992Z,99.30
2022-09-04T00:44:53.065Z,99.40
2022-09-04T00:47:48.790Z,99.40
2022-09-04T00:50:43.599Z,99.50
2022-09-04T00:53:31.312Z,99.90
2022-09-04T00:56:41.307Z,99.90
2022-09-04T00:59:22.013Z,99.90
2022-09-04T01:01:51.892Z,99.90
2022-09-04T01:04:43.591Z,99.90
2022-09-04T01:07:23.990Z,99.00
2022-09-04T01:10:23.234Z,98.70
2022-09-04T01:13:19.015Z,99.10
2022-09-04T01:15:57.454Z,99.70
2022-09-04T01:18:35.421Z,99.90
2022-09-04T01:21:20.433Z,99.90
2022-09-04T01:24:09.021Z,99.90
2022-09-04T01:26:50.537Z,99.90
2022-09-04T01:29:28.447Z,99.90
2022-09-04T01:32:36.218Z,99.90
2022-09-04T01:35:24.246Z,99.90
2022-09-04T01:38:14.584Z,99.90
2022-09-04T01:40:47.153Z,99.90
2022-09-04T01:43:18.654Z,99.90
2022-09-04T01:46:29.529Z,99.90
2022-09-04T01:49:31.628Z,99.90
2022-09-04T01:52:23.413Z,99.90
2022-09-04T01:55:08.037Z,99.90
2022-09-04T01:58:04.791Z,99.90
2022-09-04T02:01:09.197Z,99.90
2022-09-04T02:03:54.209Z,99.90
2022-09-04T02:06:40.908Z,99.90
2022-09-04T02:10:15.599Z,99.90
2022-09-04T02:13:10.294Z,99.90
2022-09-04T02:15:59.101Z,99.90
2022-09-04T02:18:51.243Z,99.90
2022-09-04T02:21:48.641Z,99.90
2022-09-04T02:24:35.922Z,99.90
2022-09-04T02:27:09.574Z,99.90
2022-09-04T02:29:49.372Z,99.90
2022-09-04T02:32:57.085Z,99.90
2022-09-04T02:35:56.266Z,99.90
2022-09-04T02:38:47.061Z,99.90
2022-09-04T02:41:42.812Z,99.90
2022-09-04T02:44:49.348Z,99.90
2022-09-04T02:48:09.925Z,99.90
2022-09-04T02:51:23.330Z,99.90
2022-09-04T02:55:00.112Z,99.90
2022-09-04T02:58:14.888Z,99.90
2022-09-04T03:00:54.320Z,99.90
2022-09-04T03:03:57.921Z,99.90
2022-09-04T03:06:49.918Z,99.90
2022-09-04T03:09:54.487Z,99.90
2022-09-04T03:12:53.153Z,99.90
2022-09-04T03:15:44.977Z,99.90
2022-09-04T03:18:35.256Z,99.90
2022-09-04T03:21:21.216Z,99.90
2022-09-04T03:24:00.152Z,99.90
2022-09-04T03:27:04.749Z,99.90
2022-09-04T03:29:51.358Z,99.90
2022-09-04T03:32:29.370Z,99.90
2022-09-04T03:35:47.208Z,99.90
2022-09-04T03:38:45.312Z,99.90
2022-09-04T03:41:16.594Z,99.90
2022-09-04T03:44:10.660Z,99.90
2022-09-04T03:47:11.757Z,99.90
2022-09-04T03:50:00.066Z,99.90
2022-09-04T03:52:57.476Z,99.90
2022-09-04T03:56:06.975Z,99.90
2022-09-04T03:59:05.613Z,99.90
2022-09-04T04:02:26.301Z,99.90
2022-09-04T04:05:03.085Z,99.90
2022-09-04T04:07:58.188Z,99.90
2022-09-04T04:10:57.054Z,99.90
2022-09-04T04:14:19.966Z,99.90
2022-09-04T04:17:23.328Z,99.90
2022-09-04T04:20:46.901Z,99.90
2022-09-04T04:23:23.043Z,99.90
2022-09-04T04:26:40.753Z,99.90
2022-09-04T04:29:55.340Z,99.90
2022-09-04T04:32:59.795Z,99.90
2022-09-04T04:36:20.433Z,99.90
2022-09-04T04:39:32.562Z,99.90
2022-09-04T04:42:17.243Z,99.90
2022-09-04T04:45:34.029Z,99.90
2022-09-04T04:48:36.350Z,99.90
2022-09-04T04:51:13.185Z,99.90
2022-09-04T04:54:15.486Z,99.90
2022-09-04T04:57:02.628Z,99.90
2022-09-04T04:59:44.814Z,99.90
2022-09-04T05:02:30.589Z,99.90
2022-09-04T05:05:24.305Z,99.90
2022-09-04T05:08:16.112Z,99.90
2022-09-04T05:11:12.912Z,99.90
2022-09-04T05:13:53.378Z,99.90
2022-09-04T05:17:09.848Z,99.90
2022-09-04T05:20:27.995Z,99.90
2022-09-04T05:23:35.426Z,99.90
2022-09-04T05:26:39.585Z,99.90
2022-09-04T05:29:40.993Z,99.90
2022-09-04T05:32:33.125Z,99.90
2022-09-04T05:35:23.248Z,99.90
2022-09-04T05:38:10.868Z,99.90
2022-09-04T05:41:36.606Z,99.90
2022-09-04T05:44:18.529Z,99.90
2022-09-04T05:47:38.754Z,99.90
2022-09-04T05:50:30.959Z,99.90
2022-09-04T05:53:16.113Z,99.90
2022-09-04T05:56:17.453Z,99.90
2022-09-04T05:59:06.041Z,99.90
2022-09-04T06:01:56.222Z,99.90
2022-09-04T06:05:10.735Z,99.90
2022-09-04T06:07:59.618Z,99.90
2022-09-04T06:10:46.399Z,99.90
2022-09-04T06:13:33.290Z,99.90
2022-09-04T06:16:28.238Z,99.90
2022-09-04T06:19:20.597Z,99.90
2022-09-04T06:22:29.656Z,99.90
2022-09-04T06:25:21.322Z,99.90
2022-09-04T06:28:18.430Z,99.90
2022-09-04T06:31:19.628Z,99.90
2022-09-04T06:34:36.590Z,99.90
2022-09-04T06:37:27.870Z,99.90
2022-09-04T06:40:09.081Z,99.90
2022-09-04T06:43:16.030Z,99.90
2022-09-04T06:46:16.387Z,99.90
2022-09-04T06:49:01.827Z,99.90
2022-09-04T06:52:19.897Z,99.90
2022-09-04T06:55:06.727Z,99.90
2022-09-04T06:57:57.687Z,99.90
2022-09-04T07:00:25.314Z,99.90
2022-09-04T07:03:42.409Z,99.90
2022-09-04T07:06:19.322Z,99.90
2022-09-04T07:09:09.205Z,99.90
2022-09-04T07:11:47.960Z,99.90
2022-09-04T07:15:12.472Z,99.90
2022-09-04T07:18:22.525Z,99.90
2022-09-04T07:21:22.550Z,99.90
2022-09-04T07:24:18.026Z,99.90
2022-09-04T07:27:26.786Z,99.90
2022-09-04T07:30:05.886Z,99.90
2022-09-04T07:32:47.844Z,99.90
2022-09-04T07:35:34.672Z,99.90
2022-09-04T07:38:35.795Z,99.90
2022-09-04T07:41:17.844Z,99.90
2022-09-04T07:44:13.073Z,99.90
2022-09-04T07:47:12.691Z,99.90
2022-09-04T07:50:17.397Z,99.90
2022-09-04T07:53:19.815Z,99.90
2022-09-04T07:56:00.420Z,99.90
2022-09-04T07:59:03.564Z,99.90
2022-09-04T08:01:52.774Z,99.90
2022-09-04T08:04:48.757Z,99.90
2022-09-04T08:07:41.310Z,99.90
2022-09-04T08:10:35.819Z,99.90
2022-09-04T08:13:43.094Z,99.90
2022-09-04T08:16:39.396Z,99.70
2022-09-04T08:19:47.107Z,99.00
2022-09-04T08:22:48.329Z,98.70
2022-09-04T08:26:03.039Z,98.80
2022-09-04T08:28:57.013Z,99.00
2022-09-04T08:31:47.284Z,97.60
2022-09-04T08:34:48.250Z,97.50
2022-09-04T08:37:59.126Z,97.80
2022-09-04T08:41:00.000Z,97.30
2022-09-04T08:44:00.445Z,96.80
2022-09-04T08:47:14.091Z,96.50
2022-09-04T08:50:23.779Z,96.60
2022-09-04T08:53:05.855Z,96.00
2022-09-04T08:56:03.768Z,95.60
2022-09-04T08:58:54.194Z,95.50
2022-09-04T09:01:58.343Z,95.00
2022-09-04T09:05:19.468Z,94.30
2022-09-04T09:08:31.778Z,94.20
2022-09-04T09:11:21.369Z,93.40
2022-09-04T09:14:07.001Z,92.90
2022-09-04T09:17:03.141Z,92.50
2022-09-04T09:20:01.031Z,92.70
2022-09-04T09:23:30.165Z,92.50
2022-09-04T09:26:31.121Z,91.50
2022-09-04T09:29:23.514Z,91.70
2022-09-04T09:32:35.678Z,90.70
2022-09-04T09:35:09.102Z,90.30
2022-09-04T09:38:07.009Z,90.10
2022-09-04T09:41:23.937Z,89.00
2022-09-04T09:44:15.349Z,88.90
2022-09-04T09:47:08.183Z,90.00
2022-09-04T09:50:20.875Z,87.20
2022-09-04T09:53:12.403Z,85.10
2022-09-04T09:55:51.466Z,86.30
2022-09-04T09:58:49.336Z,85.60
2022-09-04T10:01:51.657Z,84.80
2022-09-04T10:04:53.134Z,85.70
2022-09-04T10:07:31.851Z,85.30
2022-09-04T10:10:17.192Z,84.90
2022-09-04T10:13:19.626Z,85.90
2022-09-04T10:15:55.654Z,85.00
2022-09-04T10:18:48.678Z,83.20
2022-09-04T10:22:09.043Z,84.10
2022-09-04T10:25:13.927Z,83.40
2022-09-04T10:28:08.710Z,83.20
2022-09-04T10:31:26.992Z,82.10
2022-09-04T10:34:36.976Z,82.30
2022-09-04T10:37:47.658Z,81.00
2022-09-04T10:40:39.712Z,80.20
2022-09-04T10:43:38.061Z,78.70
2022-09-04T10:46:35.882Z,79.00
2022-09-04T10:50:06.127Z,78.20
2022-09-04T10:53:09.212Z,78.10
2022-09-04T10:55:50.962Z,78.90
2022-09-04T10:58:48.682Z,78.60
2022-09-04T11:01:35.656Z,77.00
2022-09-04T11:04:13.295Z,76.50
2022-09-04T11:07:11.411Z,79.10
2022-09-04T11:09:56.525Z,77.20
2022-09-04T11:12:50.840Z,76.60
2022-09-04T11:15:33.354Z,77.60
2022-09-04T11:18:43.796Z,76.90
2022-09-04T11:21:54.501Z,76.60
2022-09-04T11:25:02.228Z,77.10
2022-09-04T11:27:49.320Z,77.00
2022-09-04T11:30:36.442Z,76.60
2022-09-04T11:33:37.304Z,75.60
2022-09-04T11:36:50.597Z,75.40
2022-09-04T11:39:55.097Z,75.60
2022-09-04T11:42:33.906Z,76.50
2022-09-04T11:45:27.150Z,74.00
2022-09-04T11:48:32.696Z,74.30
2022-09-04T11:51:40.175Z,74.40
2022-09-04T11:54:53.412Z,73.80
2022-09-04T11:57:51.432Z,74.30
2022-09-04T12:00:20.311Z,74.10
2022-09-04T12:03:11.005Z,73.60
2022-09-04T12:06:02.579Z,73.60
2022-09-04T12:08:38.632Z,72.50
2022-09-04T12:11:44.397Z,72.80
2022-09-04T12:14:41.007Z,71.70
2022-09-04T12:17:33.621Z,72.60
2022-09-04T12:20:37.432Z,71.30
2022-09-04T12:23:32.005Z,70.70
2022-09-04T12:26:29.112Z,70.80
2022-09-04T12:29:47.330Z,70.20
2022-09-04T12:33:08.666Z,70.30
2022-09-04T12:36:13.820Z,68.90
2022-09-04T12:39:21.107Z,67.90
2022-09-04T12:42:33.654Z,68.60
2022-09-04T12:46:04.332Z,68.70
2022-09-04T12:48:51.521Z,67.70
2022-09-04T12:51:24.180Z,67.00
2022-09-04T12:54:29.302Z,67.70
2022-09-04T12:57:36.471Z,66.90
2022-09-04T13:00:13.476Z,67.50
2022-09-04T13:02:57.459Z,66.90
2022-09-04T13:06:06.896Z,66.20
2022-09-04T13:09:05.309Z,66.10
2022-09-04T13:12:11.977Z,65.00
2022-09-04T13:15:13.424Z,65.70
2022-09-04T13:18:14.242Z,67.30
2022-09-04T13:21:02.011Z,66.90
2022-09-04T13:24:06.670Z,67.00
2022-09-04T13:27:10.233Z,65.90
2022-09-04T13:30:09.544Z,65.00
2022-09-04T13:33:24.288Z,65.50
2022-09-04T13:36:07.248Z,65.60
2022-09-04T13:39:27.039Z,64.90
2022-09-04T13:42:05.499Z,66.00
2022-09-04T13:45:07.848Z,64.90
2022-09-04T13:47:56.464Z,64.60
2022-09-04T13:50:46.626Z,65.90
2022-09-04T13:53:57.593Z,64.50
2022-09-04T13:56:35.456Z,64.20
2022-09-04T13:59:09.726Z,63.40
2022-09-04T14:01:49.358Z,62.50
2022-09-04T14:04:30.906Z,61.30
2022-09-04T14:07:06.135Z,62.10
2022-09-04T14:09:41.530Z,62.20
2022-09-04T14:12:36.773Z,62.30
2022-09-04T14:15:32.799Z,62.30
2022-09-04T14:18:16.909Z,63.00
2022-09-04T14:21:01.551Z,63.00
2022-09-04T14:23:56.534Z,63.60
2022-09-04T14:26:41.052Z,64.60
2022-09-04T14:29:37.499Z,63.20
2022-09-04T14:32:32.174Z,63.00
2022-09-04T14:35:31.351Z,64.20
2022-09-04T14:38:32.653Z,63.60
2022-09-04T14:41:36.242Z,63.80
2022-09-04T14:44:12.913Z,62.50
2022-09-04T14:47:08.032Z,63.40
2022-09-04T14:49:47.671Z,63.20
2022-09-04T14:52:30.981Z,63.10
2022-09-04T14:54:58.162Z,62.40
2022-09-04T14:57:45.410Z,62.30
2022-09-04T15:00:20.098Z,63.00
2022-09-04T15:03:17.498Z,63.40
2022-09-04T15:05:59.071Z,63.30
2022-09-04T15:08:36.778Z,63.80
2022-09-04T15:11:31.883Z,65.60
2022-09-04T15:14:05.074Z,64.80
2022-09-04T15:16:32.218Z,64.60
2022-09-04T15:19:12.179Z,63.70
2022-09-04T15:21:54.688Z,62.80
2022-09-04T15:24:34.378Z,62.20
2022-09-04T15:27:40.728Z,62.30
2022-09-04T15:30:17.330Z,63.50
2022-09-04T15:32:45.359Z,62.50
2022-09-04T15:35:28.345Z,63.70
2022-09-04T15:38:22.844Z,64.10
2022-09-04T15:41:15.726Z,63.20
2022-09-04T15:43:51.786Z,63.90
2022-09-04T15:46:26.348Z,65.50
2022-09-04T15:49:18.722Z,65.30
2022-09-04T15:52:25.744Z,65.50
2022-09-04T15:55:24.924Z,65.40
2022-09-04T15:58:16.879Z,64.80
2022-09-04T16:01:17.128Z,65.40
2022-09-04T16:04:12.806Z,65.70
2022-09-04T16:07:03.665Z,66.30
2022-09-04T16:09:59.355Z,67.10
2022-09-04T16:12:49.055Z,66.60
2022-09-04T16:15:55.340Z,66.80
2022-09-04T16:18:46.665Z,67.00
2022-09-04T16:22:04.880Z,67.40
2022-09-04T16:24:46.742Z,68.50
2022-09-04T16:27:22.408Z,68.80
2022-09-04T16:30:02.812Z,68.70
2022-09-04T16:32:34.437Z,69.00
2022-09-04T16:35:09.525Z,70.00
2022-09-04T16:38:05.257Z,70.50
2022-09-04T16:40:40.826Z,70.70
2022-09-04T16:43:21.606Z,70.30
2022-09-04T16:46:27.844Z,69.90
2022-09-04T16:49:09.905Z,69.60
2022-09-04T16:52:07.442Z,70.60
2022-09-04T16:54:49.126Z,70.70
2022-09-04T16:57:21.513Z,70.90
2022-09-04T16:59:55.775Z,71.20
2022-09-04T17:02:41.923Z,71.40
2022-09-04T17:05:35.744Z,71.50
2022-09-04T17:08:19.285Z,71.30
2022-09-04T17:11:09.393Z,71.70
2022-09-04T17:13:53.076Z,72.20
2022-09-04T17:16:25.294Z,72.60
2022-09-04T17:18:55.481Z,72.60
2022-09-04T17:28:48.762Z,72.70
2022-09-04T17:29:02.019Z,73.00
2022-09-04T17:29:14.176Z,73.40
2022-09-04T17:31:56.129Z,73.70
2022-09-04T17:40:48.266Z,73.80
2022-09-04T17:40:53.757Z,74.10
2022-09-04T17:41:32.379Z,74.10
2022-09-04T17:44:03.921Z,74.20
2022-09-04T17:46:50.201Z,75.10
2022-09-04T17:49:26.650Z,75.30
2022-09-04T17:52:03.088Z,75.50
2022-09-04T17:54:33.361Z,75.60
2022-09-04T17:57:43.716Z,75.50
2022-09-04T18:00:20.539Z,75.80
2022-09-04T18:04:00.172Z,76.00
2022-09-04T18:06:44.125Z,76.40
2022-09-04T18:09:52.643Z,76.80
2022-09-04T18:12:39.992Z,76.90
2022-09-04T18:15:33.504Z,77.20
2022-09-04T18:18:25.089Z,77.60
2022-09-04T18:21:19.282Z,77.60
2022-09-04T18:24:13.427Z,77.70
2022-09-04T18:27:11.563Z,78.10
2022-09-04T18:30:57.237Z,78.50
2022-09-04T18:37:24.549Z,79.30
2022-09-04T18:37:26.721Z,78.80
2022-09-04T18:39:12.434Z,79.40
2022-09-04T18:48:15.982Z,79.50
2022-09-04T18:50:25.505Z,79.60
2022-09-04T18:50:28.112Z,80.10
2022-09-04T18:53:57.528Z,80.70
2022-09-04T18:56:35.344Z,81.00
2022-09-04T18:59:20.342Z,81.20
2022-09-04T19:02:04.470Z,81.40
2022-09-04T19:04:44.796Z,81.70
2022-09-04T19:07:41.107Z,82.00
2022-09-04T19:10:23.451Z,82.40
2022-09-04T19:12:50.441Z,82.50
2022-09-04T19:15:49.784Z,82.70
2022-09-04T19:18:30.434Z,82.80
2022-09-04T19:21:11.211Z,83.30
2022-09-04T19:23:51.201Z,83.70
2022-09-04T19:26:29.764Z,83.90
2022-09-04T19:29:14.231Z,84.30
2022-09-04T19:32:04.292Z,84.60
2022-09-04T19:35:06.477Z,84.80
2022-09-04T19:40:39.777Z,85.40
2022-09-04T19:45:57.834Z,85.60
2022-09-04T19:46:09.469Z,86.00
2022-09-04T19:47:28.879Z,86.30
2022-09-04T19:53:20.109Z,86.50
2022-09-04T19:54:14.026Z,86.80
2022-09-04T19:56:53.051Z,87.70
2022-09-04T19:59:46.035Z,88.00
2022-09-04T20:02:31.847Z,88.10
2022-09-04T20:05:06.490Z,88.50
2022-09-04T20:07:55.186Z,88.80
2022-09-04T20:10:47.670Z,89.00
2022-09-04T20:13:35.527Z,89.50
2022-09-04T20:16:28.751Z,89.80
2022-09-04T20:19:48.134Z,90.00
2022-09-04T20:22:54.461Z,90.30
2022-09-04T20:25:55.951Z,90.50
2022-09-04T20:29:06.180Z,90.60
2022-09-04T20:32:00.088Z,90.80
2022-09-04T20:34:50.127Z,90.80
2022-09-04T20:37:43.670Z,91.00
2022-09-04T20:40:33.825Z,91.30
2022-09-04T20:43:03.860Z,91.70
2022-09-04T20:52:44.449Z,92.00
2022-09-04T20:52:53.518Z,92.40
2022-09-04T20:52:54.192Z,92.60
2022-09-04T20:54:58.849Z,92.80
2022-09-04T21:03:09.327Z,92.90
2022-09-04T21:03:19.735Z,93.20
2022-09-04T21:04:42.389Z,93.60
2022-09-04T21:07:52.426Z,93.90
2022-09-04T21:10:48.541Z,94.30
2022-09-04T21:13:29.357Z,94.60
2022-09-04T21:16:07.243Z,94.90
2022-09-04T21:19:27.731Z,95.20
2022-09-04T21:22:33.087Z,95.50
2022-09-04T21:25:28.099Z,96.00
2022-09-04T21:28:26.481Z,96.30
2022-09-04T21:31:19.608Z,96.40
2022-09-04T21:34:21.186Z,96.80
2022-09-04T21:37:08.854Z,97.00
2022-09-04T21:40:50.494Z,97.30
2022-09-04T21:43:19.390Z,97.70
2022-09-04T21:46:12.849Z,98.10
2022-09-04T21:49:26.743Z,98.20
2022-09-04T21:52:09.297Z,98.40
2022-09-04T21:59:49.287Z,98.60
2022-09-04T22:02:35.693Z,99.00
2022-09-04T22:02:40.452Z,98.80
2022-09-04T22:05:01.674Z,99.20
2022-09-04T22:12:09.058Z,99.30
2022-09-04T22:13:42.735Z,99.80
2022-09-04T22:14:09.653Z,99.90
2022-09-04T22:17:15.031Z,99.90
2022-09-04T22:19:51.705Z,99.90
2022-09-04T22:22:45.239Z,99.90
2022-09-04T22:26:17.107Z,99.90
2022-09-04T22:29:14.338Z,99.90
2022-09-04T22:32:20.885Z,99.90
2022-09-04T22:35:36.524Z,99.90
2022-09-04T22:38:31.298Z,99.90
2022-09-04T22:41:32.674Z,99.90
2022-09-04T22:44:51.686Z,99.90
2022-09-04T22:48:06.662Z,99.90
2022-09-04T22:50:54.946Z,99.90
2022-09-04T22:53:43.820Z,99.90
2022-09-04T22:56:24.064Z,99.90
2022-09-04T22:59:38.057Z,99.90
2022-09-04T23:10:38.420Z,99.90
2022-09-04T23:13:47.438Z,99.90
2022-09-04T23:13:57.316Z,99.90
2022-09-04T23:16:32.299Z,99.90
2022-09-04T23:24:54.846Z,99.90
2022-09-04T23:26:42.857Z,99.90
2022-09-04T23:26:59.169Z,99.90
2022-09-04T23:29:50.018Z,99.90
2022-09-04T23:33:06.763Z,99.90
2022-09-04T23:36:02.317Z,99.90
2022-09-04T23:38:57.278Z,99.90
2022-09-04T23:41:52.596Z,99.90
2022-09-04T23:44:50.624Z,99.90
2022-09-04T23:47:48.162Z,99.90
2022-09-04T23:50:30.167Z,99.90
2022-09-04T23:53:15.748Z,99.90
2022-09-04T23:56:05.612Z,99.90
2022-09-04T23:59:29.097Z,99.90
